HSSS Airport Information

Runway Information
Runway 18 Length 9751 ft width 148 ft
Elevation 1265 ft Threshold 0 ft Heading 177
Runway 36 Length 9751 ft Width 148 ft
Elevation 1260 ft Threshold 0 ft Heading 357
Airport Frequencies
Type APP Name Khartoum A Frequency 124.7 MHZ
Type EMR Name FIRE Frequency 121.9 MHZ
Type North Area Name North Sect Frequency 125.4 MHZ
Type South Area Name South Sect Frequency 127.3 MHZ
Type TWR Name Khartoum T Frequency 119.2 MHZ
Airport Navaids
Type VOR-DME Name Khartoum Frequency 112100 KHZ
Airport Weather Information & NOTAM
ADDS - METARS form results

(1910 UTC 25 June 2018)
 
METAR text: HSSS 251900Z 18012KT CAVOK 32/15 Q1009 NOSIG
Conditions at: HSSS (KHARTOUM (CIV/MI, SD) observed 1900 UTC 25 June 2018
Temperature: 32.0°C (90°F)
Dewpoint: 15.0°C (59°F) [RH = 36%]
Pressure (altimeter): 29.79 inches Hg (1009.0 mb)
Winds: from the S (180 degrees) at 14 MPH (12 knots; 6.2 m/s)
Visibility: 6 or more miles (10+ km)
Ceiling: ceiling and visibility are OK
Clouds: unknown
Weather: no significant weather observed at this time

METAR text: HSSS 251830Z 17011KT CAVOK 34/15 Q1009 NOSIG
Conditions at: HSSS (KHARTOUM (CIV/MI, SD) observed 1830 UTC 25 June 2018
Temperature: 34.0°C (93°F)
Dewpoint: 15.0°C (59°F) [RH = 32%]
Pressure (altimeter): 29.79 inches Hg (1009.0 mb)
Winds: from the S (170 degrees) at 13 MPH (11 knots; 5.7 m/s)
Visibility: 6 or more miles (10+ km)
Ceiling: ceiling and visibility are OK
Clouds: unknown
Weather: no significant weather observed at this time